Time;durP1;ratioP1;P1;durP2;ratioP2;P2;SDS_P1;SDS_P2;PMS_P1;PMS_P2;Temp;Humidity;BMP_temperature;BMP_pressure;BME280_temperature;BME280_humidity;BME280_pressure;Samples;Min_cycle;Max_cycle;Signal;HPM_P1;HPM_P2
2022/03/15 00:00:55;;;;;;;3.92;2.60;;;;;;;19.20;44.08;98123.00;10082888;29;20060;-84
2022/03/15 00:06:15;;;;;;;3.78;2.72;;;;;;;19.17;44.13;98121.69;10040994;29;20053;-84
2022/03/15 00:11:35;;;;;;;3.20;2.70;;;;;;;19.16;44.01;98120.06;10048642;29;20106;-84
2022/03/15 00:16:54;;;;;;;3.90;2.70;;;;;;;19.16;44.23;98121.97;10044523;29;20124;-84
2022/03/15 00:22:14;;;;;;;4.22;2.40;;;;;;;19.14;44.08;98113.34;10043509;29;20073;-84
2022/03/15 00:27:34;;;;;;;3.17;2.40;;;;;;;19.13;44.09;98117.97;10042155;29;20049;-84
2022/03/15 00:32:54;;;;;;;3.00;2.35;;;;;;;19.11;44.43;98120.16;10064952;29;20069;-84
2022/03/15 00:38:14;;;;;;;2.97;2.70;;;;;;;19.11;43.96;98116.63;10049364;29;20052;-84
2022/03/15 00:43:34;;;;;;;3.13;2.58;;;;;;;19.09;44.29;98116.94;10065069;29;20049;-84
2022/03/15 00:48:54;;;;;;;4.38;2.58;;;;;;;19.08;44.31;98112.63;10068132;29;20094;-84
2022/03/15 00:54:13;;;;;;;3.03;2.55;;;;;;;19.08;44.19;98128.81;10068194;29;20525;-84
2022/03/15 00:59:33;;;;;;;3.45;2.38;;;;;;;19.06;44.01;98131.00;10048962;29;20062;-84
2022/03/15 01:04:52;;;;;;;3.90;2.60;;;;;;;19.05;44.04;98134.81;10037698;29;20072;-84
2022/03/15 01:10:12;;;;;;;2.75;2.40;;;;;;;19.03;43.89;98136.97;10053404;29;20046;-84
2022/03/15 01:15:42;;;;;;;2.97;2.40;;;;;;;19.03;44.07;98130.78;10022908;29;20049;-84
2022/03/15 01:21:02;;;;;;;3.20;2.20;;;;;;;19.02;43.92;98124.56;10030637;29;20053;-84
2022/03/15 01:26:22;;;;;;;3.00;2.33;;;;;;;18.99;44.00;98119.75;10086759;29;20059;-83
2022/03/15 01:31:47;;;;;;;2.47;2.10;;;;;;;18.98;43.95;98120.03;10058874;29;20049;-84
2022/03/15 01:37:07;;;;;;;3.42;2.60;;;;;;;18.96;43.95;98126.53;10072273;29;20068;-84
2022/03/15 01:42:28;;;;;;;2.95;2.35;;;;;;;18.95;43.89;98124.94;10053930;29;20045;-84
2022/03/15 01:47:48;;;;;;;3.05;2.50;;;;;;;18.94;44.01;98117.91;10041395;29;20042;-84
2022/03/15 01:53:08;;;;;;;3.10;2.47;;;;;;;18.93;43.90;98113.63;10051067;29;20042;-84
2022/03/15 01:58:32;;;;;;;3.05;2.40;;;;;;;18.92;43.75;98127.41;10065038;29;20088;-84
2022/03/15 02:03:56;;;;;;;2.80;2.38;;;;;;;18.91;43.85;98128.47;10085737;29;20045;-84
2022/03/15 02:09:16;;;;;;;2.85;2.45;;;;;;;18.89;43.61;98120.66;10068749;29;20464;-84
2022/03/15 02:14:36;;;;;;;2.63;2.30;;;;;;;18.88;43.74;98112.88;10068366;29;20049;-84
2022/03/15 02:19:56;;;;;;;2.45;2.25;;;;;;;18.87;43.64;98111.25;10077700;29;20162;-84
2022/03/15 02:25:15;;;;;;;2.45;2.22;;;;;;;18.86;43.64;98110.44;10066628;29;20053;-84
2022/03/15 02:30:35;;;;;;;2.40;2.20;;;;;;;18.84;43.51;98096.44;10063465;29;20053;-84
2022/03/15 02:35:55;;;;;;;2.88;2.33;;;;;;;18.83;43.43;98094.00;10079697;29;20545;-84
2022/03/15 02:41:15;;;;;;;2.42;2.20;;;;;;;18.81;43.36;98097.00;10126278;29;20083;-83
2022/03/15 02:46:36;;;;;;;3.15;2.20;;;;;;;18.80;43.40;98092.69;10073102;29;20042;-84
2022/03/15 02:51:56;;;;;;;4.03;2.63;;;;;;;18.78;43.30;98100.25;10111412;29;20061;-83
2022/03/15 02:57:16;;;;;;;2.40;2.20;;;;;;;18.78;43.31;98097.56;10109260;29;20051;-83
2022/03/15 03:02:36;;;;;;;3.92;2.30;;;;;;;18.77;43.19;98102.13;10083781;29;20485;-83
2022/03/15 03:07:56;;;;;;;2.30;2.10;;;;;;;18.75;43.25;98092.72;10048317;29;20473;-84
2022/03/15 03:13:15;;;;;;;2.70;2.13;;;;;;;18.72;43.24;98099.50;10068911;29;20457;-84
2022/03/15 03:18:35;;;;;;;2.40;2.20;;;;;;;18.72;43.10;98094.09;10090148;29;20075;-84
2022/03/15 03:23:56;;;;;;;2.83;2.42;;;;;;;18.70;43.08;98090.88;10063953;29;20056;-84
2022/03/15 03:29:17;;;;;;;3.35;2.40;;;;;;;18.69;43.07;98078.47;10070144;29;20105;-84
2022/03/15 03:34:36;;;;;;;2.80;2.40;;;;;;;18.69;43.08;98091.16;10069813;29;20541;-84
2022/03/15 03:39:56;;;;;;;2.97;2.42;;;;;;;18.68;42.90;98092.25;10091119;29;20047;-84
2022/03/15 03:45:16;;;;;;;2.60;2.40;;;;;;;18.67;42.86;98085.25;10052072;29;20070;-84
2022/03/15 03:50:35;;;;;;;2.83;2.50;;;;;;;18.65;42.94;98090.94;10042697;29;20046;-84
2022/03/15 03:55:55;;;;;;;2.95;2.20;;;;;;;18.64;42.85;98089.34;10052699;29;20069;-84
2022/03/15 04:01:14;;;;;;;2.35;2.15;;;;;;;18.62;42.90;98088.81;10114724;29;20166;-84
2022/03/15 04:06:34;;;;;;;2.85;1.98;;;;;;;18.61;42.62;98083.72;10104294;29;20049;-84
2022/03/15 04:11:53;;;;;;;2.88;2.15;;;;;;;18.60;42.76;98085.56;10098693;29;20052;-84
2022/03/15 04:17:14;;;;;;;2.58;2.33;;;;;;;18.59;42.70;98078.59;10131232;29;20041;-84
2022/03/15 04:22:34;;;;;;;2.85;2.20;;;;;;;18.57;42.46;98067.28;10104509;29;20060;-84
2022/03/15 04:27:56;;;;;;;2.28;2.08;;;;;;;18.56;42.55;98073.75;10083273;29;20408;-84
2022/03/15 04:33:16;;;;;;;2.72;2.30;;;;;;;18.55;42.41;98064.06;10143075;29;20044;-84
2022/03/15 04:38:36;;;;;;;3.83;2.30;;;;;;;18.54;42.37;98076.75;10107777;29;20120;-84
2022/03/15 04:43:56;;;;;;;2.63;2.25;;;;;;;18.52;42.27;98073.53;10106407;29;20045;-83
2022/03/15 04:49:16;;;;;;;2.25;1.95;;;;;;;18.51;42.33;98077.31;10109264;29;20536;-84
2022/03/15 04:54:36;;;;;;;2.83;2.30;;;;;;;18.51;42.18;98076.53;10106065;29;20108;-84
2022/03/15 04:59:56;;;;;;;2.50;2.30;;;;;;;18.50;42.16;98067.63;10086783;29;20042;-83
2022/03/15 05:05:16;;;;;;;2.47;2.28;;;;;;;18.52;42.30;98078.94;10063410;29;20056;-83
2022/03/15 05:16:22;;;;;;;3.40;2.83;;;;;;;18.57;42.61;98067.28;10067823;29;20116;-84
2022/03/15 05:21:42;;;;;;;2.00;1.90;;;;;;;18.59;42.72;98070.50;10071681;29;20054;-84
2022/03/15 05:27:01;;;;;;;2.25;2.05;;;;;;;18.60;42.71;98058.59;10055153;29;20523;-84
2022/03/15 05:32:21;;;;;;;2.20;1.90;;;;;;;18.65;43.01;98055.06;10089107;29;20045;-84
2022/03/15 05:37:41;;;;;;;2.33;2.00;;;;;;;18.69;43.40;98058.78;10109923;29;20052;-85
2022/03/15 05:43:01;;;;;;;2.42;2.17;;;;;;;18.73;43.32;98057.09;10094348;29;20037;-85
2022/03/15 05:48:21;;;;;;;3.47;2.20;;;;;;;18.78;43.27;98049.75;10101171;29;20454;-85
2022/03/15 05:53:41;;;;;;;3.00;1.85;;;;;;;18.81;43.44;98053.00;10073309;29;20045;-85
2022/03/15 05:59:02;;;;;;;2.33;2.05;;;;;;;18.84;43.31;98057.84;10067550;29;20057;-84
2022/03/15 06:04:25;;;;;;;5.15;2.10;;;;;;;18.88;43.59;98058.88;10076350;29;20045;-85
2022/03/15 06:09:45;;;;;;;5.15;2.25;;;;;;;18.89;42.92;98047.75;10045938;29;20111;-84
2022/03/15 06:15:05;;;;;;;3.35;2.10;;;;;;;18.92;43.04;98043.69;10058675;29;20484;-84
2022/03/15 06:20:25;;;;;;;11.63;4.20;;;;;;;18.96;42.90;98044.72;10064088;29;20048;-84
2022/03/15 06:25:50;;;;;;;16.17;4.55;;;;;;;18.99;43.07;98038.72;10029241;29;20111;-84
2022/03/15 06:31:10;;;;;;;13.90;4.75;;;;;;;19.03;42.87;98034.34;10031232;29;20063;-84
2022/03/15 06:36:30;;;;;;;13.52;3.95;;;;;;;19.08;42.81;98036.97;10045902;29;20120;-84
2022/03/15 06:41:51;;;;;;;12.43;4.32;;;;;;;19.12;42.89;98031.81;10048598;29;20053;-84
2022/03/15 06:47:11;;;;;;;13.30;4.50;;;;;;;19.17;42.95;98034.44;10091757;29;20509;-84
2022/03/15 06:52:30;;;;;;;12.93;4.28;;;;;;;19.20;42.85;98025.75;10051915;29;20405;-84
2022/03/15 06:57:50;;;;;;;10.45;4.20;;;;;;;19.23;42.77;98017.06;10061843;29;20057;-84
2022/03/15 07:03:11;;;;;;;15.13;4.10;;;;;;;19.25;42.70;98014.06;10061362;29;20116;-84
2022/03/15 07:08:31;;;;;;;13.02;4.55;;;;;;;19.28;42.69;98016.19;10074905;29;20045;-84
2022/03/15 07:13:50;;;;;;;10.55;4.65;;;;;;;19.29;42.61;98015.91;10042970;29;20113;-84
2022/03/15 07:19:10;;;;;;;10.25;4.38;;;;;;;19.31;42.65;98018.31;10073827;29;20049;-84
2022/03/15 07:24:30;;;;;;;10.20;4.28;;;;;;;19.32;42.52;98014.50;10055150;29;20045;-84
2022/03/15 07:29:49;;;;;;;12.00;4.60;;;;;;;19.34;42.48;98017.72;10068699;29;20068;-83
2022/03/15 07:35:09;;;;;;;11.52;4.20;;;;;;;19.35;42.58;98005.81;10049067;29;20049;-84
2022/03/15 07:40:31;;;;;;;10.57;4.05;;;;;;;19.36;42.47;98007.41;10042058;29;20129;-84
2022/03/15 07:45:51;;;;;;;8.55;3.80;;;;;;;19.38;42.47;98001.72;10029177;29;20482;-84
2022/03/15 07:51:10;;;;;;;7.68;3.67;;;;;;;19.38;42.27;98005.22;10048256;29;20041;-84
2022/03/15 07:56:30;;;;;;;9.10;3.60;;;;;;;19.39;42.26;97993.31;10074091;29;20082;-84
2022/03/15 08:01:50;;;;;;;8.10;3.60;;;;;;;19.41;42.13;97995.75;10080215;29;20053;-84
2022/03/15 08:07:10;;;;;;;8.27;3.83;;;;;;;19.42;41.98;97989.22;10103371;29;20045;-83
2022/03/15 08:12:30;;;;;;;9.02;4.15;;;;;;;19.42;42.08;97981.91;10102854;29;20049;-83
2022/03/15 08:17:49;;;;;;;7.35;3.40;;;;;;;19.43;42.03;97972.72;10075233;29;20053;-83
2022/03/15 08:23:12;;;;;;;6.50;3.30;;;;;;;19.43;42.03;97967.31;10076706;29;20145;-83
2022/03/15 08:28:32;;;;;;;6.75;3.78;;;;;;;19.45;42.03;97967.03;10101402;29;20051;-83
2022/03/15 08:33:51;;;;;;;7.20;3.40;;;;;;;19.46;41.85;97964.00;10103073;29;20036;-84
2022/03/15 08:39:11;;;;;;;6.82;3.50;;;;;;;19.46;41.69;97944.28;10105621;29;20060;-84
2022/03/15 08:44:30;;;;;;;6.93;3.20;;;;;;;19.45;41.79;97943.50;10078614;29;20558;-84
2022/03/15 08:49:50;;;;;;;7.00;3.88;;;;;;;19.46;41.55;97939.69;10091207;29;20052;-84
2022/03/15 08:55:10;;;;;;;5.75;3.20;;;;;;;19.47;41.60;97935.09;10086382;29;20109;-85
2022/03/15 09:00:30;;;;;;;5.70;3.20;;;;;;;19.47;41.18;97927.00;10078668;29;20488;-85
2022/03/15 09:05:50;;;;;;;6.40;3.13;;;;;;;19.45;41.42;97916.47;10080021;29;20056;-85
2022/03/15 09:11:12;;;;;;;5.28;3.15;;;;;;;19.47;41.24;97913.50;10093530;29;20089;-85
2022/03/15 09:16:32;;;;;;;5.47;3.60;;;;;;;19.47;41.24;97905.38;10091601;29;20040;-85
2022/03/15 09:21:52;;;;;;;6.85;3.58;;;;;;;19.45;41.20;97905.66;10105133;29;20111;-85
2022/03/15 09:27:12;;;;;;;6.20;2.97;;;;;;;19.46;41.08;97901.84;10091568;29;20049;-85
2022/03/15 09:32:32;;;;;;;5.85;3.58;;;;;;;19.47;41.12;97897.28;10090821;29;20408;-84
2022/03/15 09:37:52;;;;;;;4.57;2.70;;;;;;;19.46;41.02;97901.84;10092098;29;20045;-84
2022/03/15 09:43:12;;;;;;;5.28;2.92;;;;;;;19.46;41.15;97895.66;10091722;29;20417;-84
2022/03/15 09:48:32;;;;;;;5.47;3.25;;;;;;;19.44;40.97;97887.84;10096626;29;20056;-85
2022/03/15 09:53:53;;;;;;;5.82;3.00;;;;;;;19.45;40.84;97884.06;10087134;29;20056;-85
2022/03/15 09:59:19;;;;;;;7.13;3.00;;;;;;;19.43;40.97;97870.03;10047887;29;20061;-85
2022/03/15 10:04:38;;;;;;;4.93;2.85;;;;;;;19.44;40.76;97870.81;10068917;29;20045;-85
2022/03/15 10:10:00;;;;;;;4.72;2.90;;;;;;;19.43;40.86;97861.94;10085829;29;20125;-84
2022/03/15 10:15:26;;;;;;;3.90;2.80;;;;;;;19.43;40.70;97853.03;10073102;29;20053;-85
2022/03/15 10:20:47;;;;;;;4.50;3.35;;;;;;;19.42;38.32;97851.41;10077388;29;20055;-85
2022/03/15 10:26:06;;;;;;;5.00;3.05;;;;;;;19.39;38.07;97841.22;10087790;29;20055;-85
2022/03/15 10:31:26;;;;;;;4.47;2.58;;;;;;;19.36;39.73;97829.06;10081161;29;20049;-85
2022/03/15 10:36:49;;;;;;;4.97;2.92;;;;;;;19.35;39.12;97809.38;10078211;29;20040;-85
2022/03/15 10:42:09;;;;;;;4.75;2.88;;;;;;;19.36;39.34;97800.16;10079124;29;20051;-85
2022/03/15 10:47:29;;;;;;;6.05;3.08;;;;;;;19.36;39.31;97783.13;10103748;29;20409;-85
2022/03/15 10:52:51;;;;;;;4.65;2.92;;;;;;;19.37;39.45;97773.94;10100688;29;20069;-85
2022/03/15 10:58:12;;;;;;;19.23;6.80;;;;;;;19.36;40.13;97762.31;10036303;29;20053;-85
2022/03/15 11:03:31;;;;;;;16.52;6.65;;;;;;;19.35;41.73;97755.34;10051027;29;20041;-85
2022/03/15 11:08:51;;;;;;;13.70;5.80;;;;;;;19.34;40.89;97744.81;10057185;29;20041;-86
2022/03/15 11:14:11;;;;;;;18.10;7.07;;;;;;;19.35;41.65;97731.00;10046027;29;20049;-86
2022/03/15 11:19:32;;;;;;;20.15;7.43;;;;;;;19.34;43.82;97726.69;10067830;29;20045;-86
2022/03/15 11:25:14;;;;;;;16.83;6.60;;;;;;;19.35;44.77;97716.72;10046975;29;20056;-86
2022/03/15 11:30:35;;;;;;;12.52;6.05;;;;;;;19.35;45.49;97717.50;10046496;29;20064;-87
2022/03/15 11:35:55;;;;;;;16.38;6.47;;;;;;;19.35;45.78;97716.72;10058556;29;20057;-86
2022/03/15 11:41:15;;;;;;;13.52;5.90;;;;;;;19.34;46.31;97704.28;10047101;29;20053;-86
2022/03/15 11:46:43;;;;;;;11.90;5.35;;;;;;;19.33;46.08;97689.19;10044251;29;20045;-86
2022/03/15 11:52:28;;;;;;;13.27;5.40;;;;;;;19.34;46.68;97682.66;10030416;29;20045;-85
2022/03/15 11:57:51;;;;;;;11.70;5.78;;;;;;;19.33;46.68;97676.47;10058777;29;20070;-86
2022/03/15 12:03:15;;;;;;;12.20;5.40;;;;;;;19.32;46.59;97665.97;10039600;29;20071;-86
2022/03/15 12:08:35;;;;;;;9.73;5.57;;;;;;;19.31;45.96;97648.16;10040763;29;20042;-86
2022/03/15 12:14:15;;;;;;;11.32;5.22;;;;;;;19.29;45.30;97642.28;10052718;29;20049;-85
2022/03/15 12:19:45;;;;;;;9.38;5.22;;;;;;;19.28;44.59;97632.56;10053536;29;20060;-85
2022/03/15 12:25:15;;;;;;;7.32;5.28;;;;;;;19.27;43.66;97620.94;10027900;29;20041;-85
2022/03/15 12:30:34;;;;;;;8.30;5.35;;;;;;;19.26;43.18;97621.25;10029062;29;20109;-86
2022/03/15 12:36:08;;;;;;;10.25;5.50;;;;;;;19.25;42.61;97598.84;10035145;29;20563;-86
2022/03/15 12:41:28;;;;;;;7.82;5.07;;;;;;;19.24;42.25;97585.63;10032860;29;20060;-85
2022/03/15 12:46:47;;;;;;;8.35;5.22;;;;;;;19.23;41.67;97594.81;10041233;29;20501;-85
2022/03/15 12:52:12;;;;;;;8.43;4.93;;;;;;;19.23;41.26;97584.03;10049024;29;20052;-86
2022/03/15 12:57:33;;;;;;;7.32;5.05;;;;;;;19.21;40.95;97570.03;10044488;29;20130;-85
2022/03/15 13:02:54;;;;;;;8.10;4.72;;;;;;;19.20;40.69;97571.13;10032740;29;20052;-85
2022/03/15 13:08:15;;;;;;;7.72;5.13;;;;;;;19.18;40.47;97579.53;10040972;29;20071;-85
2022/03/15 13:13:35;;;;;;;8.65;5.15;;;;;;;19.16;40.18;97562.84;10050270;29;20041;-85
2022/03/15 13:18:54;;;;;;;7.07;4.97;;;;;;;19.16;40.36;97547.41;10041396;29;20060;-85
2022/03/15 13:24:15;;;;;;;8.02;4.75;;;;;;;19.15;40.22;97548.53;10052115;29;20052;-85
2022/03/15 13:29:39;;;;;;;7.53;5.18;;;;;;;19.13;39.96;97531.84;9994846;29;20136;-85
2022/03/15 13:35:00;;;;;;;8.10;5.38;;;;;;;19.12;39.82;97530.22;10048272;29;20177;-85
2022/03/15 13:40:29;;;;;;;6.55;5.13;;;;;;;19.12;39.71;97526.72;10027963;29;20041;-85
2022/03/15 13:45:49;;;;;;;7.70;5.30;;;;;;;19.09;39.58;97509.25;10039848;29;20413;-85
2022/03/15 13:51:28;;;;;;;8.02;5.28;;;;;;;19.09;39.17;97514.66;10039560;29;20049;-85
2022/03/15 13:56:53;;;;;;;7.82;5.03;;;;;;;19.08;39.08;97501.44;10039368;29;20425;-85
2022/03/15 14:02:17;;;;;;;7.30;5.25;;;;;;;19.07;39.02;97500.66;10052876;29;20057;-86
2022/03/15 14:07:37;;;;;;;7.07;5.03;;;;;;;19.04;38.81;97493.13;10051776;29;20105;-86
2022/03/15 14:12:57;;;;;;;7.93;5.30;;;;;;;19.04;38.66;97473.44;10046213;29;20045;-86
2022/03/15 14:18:25;;;;;;;7.60;5.15;;;;;;;19.04;38.75;97465.34;10044197;29;20531;-85
2022/03/15 14:23:53;;;;;;;6.72;5.05;;;;;;;19.02;38.25;97454.84;10052091;29;20626;-85
2022/03/15 14:29:19;;;;;;;7.03;5.20;;;;;;;19.03;38.33;97442.13;10036717;29;20045;-85
2022/03/15 14:35:02;;;;;;;7.82;5.30;;;;;;;19.04;37.91;97428.34;10055555;29;20485;-85
2022/03/15 14:40:23;;;;;;;7.15;5.35;;;;;;;19.04;37.93;97408.63;10057747;29;20051;-86
2022/03/15 14:45:43;;;;;;;8.40;5.97;;;;;;;19.05;37.75;97410.22;10066504;29;20061;-85
2022/03/15 14:51:04;;;;;;;7.32;5.70;;;;;;;19.05;37.49;97396.72;10061172;29;20045;-86
2022/03/15 14:56:24;;;;;;;7.43;5.55;;;;;;;19.06;37.37;97393.72;10058130;29;20061;-86
2022/03/15 15:01:44;;;;;;;6.47;5.68;;;;;;;19.07;37.41;97387.22;10029011;29;20084;-86
2022/03/15 15:07:09;;;;;;;7.50;6.00;;;;;;;19.08;37.10;97380.69;10079854;29;20053;-86
2022/03/15 15:12:29;;;;;;;7.45;5.70;;;;;;;19.11;36.79;97382.00;10063395;29;20037;-86
2022/03/15 15:17:49;;;;;;;7.43;5.68;;;;;;;19.12;36.50;97367.38;10062317;29;20557;-86
2022/03/15 15:23:12;;;;;;;7.32;5.72;;;;;;;19.12;36.19;97367.38;10061667;29;20037;-86
2022/03/15 15:28:32;;;;;;;7.35;6.07;;;;;;;19.15;36.18;97377.56;10061347;29;20050;-85
2022/03/15 15:33:51;;;;;;;9.73;6.55;;;;;;;19.17;35.86;97357.25;10072412;29;20432;-85
2022/03/15 15:39:11;;;;;;;10.70;6.45;;;;;;;19.18;35.39;97355.34;10047935;29;20053;-86
2022/03/15 15:44:31;;;;;;;8.95;7.95;;;;;;;19.21;34.88;97343.13;10076578;29;20047;-85
2022/03/15 15:49:53;;;;;;;9.02;6.60;;;;;;;19.24;34.44;97329.03;10022107;29;20057;-85
2022/03/15 15:55:16;;;;;;;18.05;12.80;;;;;;;19.16;30.62;97317.06;10047196;29;20448;-84
2022/03/15 16:00:38;;;;;;;9.98;8.98;;;;;;;19.16;32.99;97295.44;10081272;29;20127;-84
2022/03/15 16:05:59;;;;;;;11.80;9.38;;;;;;;19.20;33.32;97282.13;10111324;29;20163;-84
2022/03/15 16:11:19;;;;;;;10.15;8.52;;;;;;;19.23;33.47;97263.41;10104686;29;20045;-84
2022/03/15 16:16:40;;;;;;;10.13;7.70;;;;;;;19.26;33.62;97243.84;10088188;29;20037;-84
2022/03/15 16:22:03;;;;;;;10.43;7.55;;;;;;;19.29;33.90;97239.75;10076404;29;20119;-84
2022/03/15 16:27:23;;;;;;;8.30;6.95;;;;;;;19.33;33.93;97235.31;10075803;29;20093;-84
2022/03/15 16:32:42;;;;;;;9.77;7.22;;;;;;;19.35;33.95;97233.09;10096788;29;20068;-84
2022/03/15 16:38:02;;;;;;;9.15;6.82;;;;;;;19.39;34.21;97233.28;10080192;29;20059;-84
2022/03/15 16:43:22;;;;;;;8.43;7.03;;;;;;;19.42;34.34;97233.44;10093186;29;20049;-84
2022/03/15 16:48:43;;;;;;;7.78;6.70;;;;;;;19.46;34.50;97220.88;10092776;29;20089;-84
2022/03/15 16:54:03;;;;;;;8.23;6.05;;;;;;;19.49;34.63;97217.56;10066296;29;20072;-84
2022/03/15 16:59:24;;;;;;;7.15;6.30;;;;;;;19.52;34.65;97214.25;10084976;29;20431;-84
2022/03/15 17:10:22;;;;;;;8.15;6.07;;;;;;;19.59;34.99;97194.06;10106351;29;20071;-84
2022/03/15 17:15:47;;;;;;;6.93;5.75;;;;;;;19.62;35.01;97179.91;10102161;29;20485;-84
2022/03/15 17:21:15;;;;;;;6.50;5.53;;;;;;;19.65;35.17;97182.00;10094275;29;20449;-84
2022/03/15 17:26:37;;;;;;;8.18;5.82;;;;;;;19.68;35.22;97162.44;10116482;29;20045;-84
2022/03/15 17:32:02;;;;;;;7.32;5.60;;;;;;;19.70;35.69;97139.41;10084460;29;20045;-86
2022/03/15 17:37:22;;;;;;;7.30;6.00;;;;;;;19.72;36.17;97144.53;10089175;29;20077;-84
2022/03/15 17:42:46;;;;;;;8.52;5.60;;;;;;;19.78;36.65;97164.06;10098730;29;20085;-84
2022/03/15 17:48:06;;;;;;;6.35;5.68;;;;;;;19.83;37.21;97172.03;10094083;29;20042;-84
2022/03/15 17:53:25;;;;;;;7.22;5.57;;;;;;;19.85;37.26;97194.94;10088539;29;20037;-83
2022/03/15 17:58:50;;;;;;;6.68;5.25;;;;;;;19.87;37.35;97195.41;10052413;29;20057;-83
2022/03/15 18:04:10;;;;;;;5.80;4.68;;;;;;;19.92;37.40;97195.25;10070416;29;20134;-82
2022/03/15 18:09:30;;;;;;;6.88;4.88;;;;;;;19.95;37.58;97196.53;10071276;29;20051;-83
2022/03/15 18:14:53;;;;;;;6.00;4.88;;;;;;;20.00;37.80;97192.91;10050395;29;20049;-83
2022/03/15 18:20:13;;;;;;;6.95;5.22;;;;;;;20.03;37.88;97174.13;10057698;29;20110;-82
2022/03/15 18:25:35;;;;;;;6.43;5.03;;;;;;;20.06;37.98;97178.88;10055942;29;20383;-82
2022/03/15 18:30:56;;;;;;;5.43;4.75;;;;;;;20.10;38.05;97173.66;10045591;29;20045;-83
2022/03/15 18:36:15;;;;;;;6.63;4.57;;;;;;;20.14;38.13;97169.19;10063446;29;20473;-83
2022/03/15 18:41:35;;;;;;;8.13;4.80;;;;;;;20.18;38.26;97169.34;10081051;29;20053;-83
2022/03/15 18:46:56;;;;;;;7.18;4.88;;;;;;;20.20;38.19;97157.09;10058754;29;20057;-83
2022/03/15 18:52:15;;;;;;;6.75;4.47;;;;;;;20.23;38.37;97171.88;10057543;29;20407;-87
2022/03/15 18:57:36;;;;;;;6.25;4.38;;;;;;;20.25;38.55;97158.84;10041826;29;20094;-86
2022/03/15 19:02:55;;;;;;;9.07;3.95;;;;;;;20.27;38.66;97134.97;10059753;29;20093;-85
2022/03/15 19:08:16;;;;;;;8.50;4.35;;;;;;;20.28;38.61;97140.03;10060137;29;20394;-86
2022/03/15 19:13:36;;;;;;;6.18;4.10;;;;;;;20.30;38.75;97128.91;10042941;29;20042;-85
2022/03/15 19:18:59;;;;;;;8.85;4.30;;;;;;;20.31;38.76;97119.69;10051129;29;20050;-85
2022/03/15 19:24:19;;;;;;;6.07;3.88;;;;;;;20.31;38.65;97115.06;10045781;29;20041;-84
2022/03/15 19:29:40;;;;;;;4.88;4.10;;;;;;;20.33;39.19;97109.34;10047305;29;20041;-85
2022/03/15 19:34:59;;;;;;;6.28;4.22;;;;;;;20.35;39.09;97105.19;10065053;29;20499;-85
2022/03/15 19:40:19;;;;;;;15.75;14.00;;;;;;;20.18;36.61;97107.91;10023783;29;20416;-85
2022/03/15 19:45:39;;;;;;;22.23;17.35;;;;;;;19.85;36.72;97107.63;10030513;29;20533;-84
2022/03/15 19:50:59;;;;;;;15.13;10.43;;;;;;;19.95;38.03;97089.19;10023404;29;20042;-87
2022/03/15 19:56:20;;;;;;;15.43;10.38;;;;;;;20.06;38.51;97078.81;10045549;29;20635;-86
2022/03/15 20:01:46;;;;;;;12.77;9.80;;;;;;;20.10;38.77;97077.06;10059991;29;20090;-85
2022/03/15 20:07:10;;;;;;;13.07;9.85;;;;;;;20.16;39.13;97072.28;10054037;29;20041;-85
2022/03/15 20:12:35;;;;;;;11.10;8.80;;;;;;;20.19;39.25;97066.25;10037657;29;20049;-85
2022/03/15 20:18:04;;;;;;;10.20;8.27;;;;;;;20.20;39.62;97042.69;10057138;29;20050;-86
2022/03/15 20:23:24;;;;;;;12.27;8.52;;;;;;;20.22;39.78;97051.28;10020493;29;20493;-86
2022/03/15 20:28:44;;;;;;;11.50;8.50;;;;;;;20.23;39.96;97039.31;10020939;29;20109;-85
2022/03/15 20:34:07;;;;;;;11.80;8.63;;;;;;;20.24;40.25;97024.69;10055041;29;20105;-85
2022/03/15 20:39:29;;;;;;;9.90;7.82;;;;;;;20.23;40.34;97013.09;10031141;29;20137;-83
2022/03/15 20:44:49;;;;;;;10.93;7.63;;;;;;;20.23;40.51;97004.97;10055906;29;20630;-83
2022/03/15 20:50:09;;;;;;;9.57;7.30;;;;;;;20.24;40.85;96995.72;10029675;29;20045;-84
2022/03/15 20:55:29;;;;;;;9.18;7.40;;;;;;;20.23;41.23;96999.56;10037831;29;20050;-84
2022/03/15 21:00:48;;;;;;;8.60;7.32;;;;;;;20.23;41.13;97004.97;10019717;29;20394;-84
2022/03/15 21:06:09;;;;;;;9.50;7.55;;;;;;;20.23;41.22;96998.75;10038417;29;20051;-84
2022/03/15 21:11:29;;;;;;;8.68;6.82;;;;;;;20.23;41.36;96999.56;10052818;29;20041;-84
2022/03/15 21:16:50;;;;;;;11.32;7.10;;;;;;;20.25;41.44;96989.19;10065376;29;20045;-84
2022/03/15 21:22:10;;;;;;;8.18;6.85;;;;;;;20.25;41.62;96991.91;10083186;29;20056;-85
2022/03/15 21:27:30;;;;;;;9.35;7.57;;;;;;;20.24;41.48;96979.50;10066186;29;20046;-84
2022/03/15 21:32:50;;;;;;;10.07;6.50;;;;;;;20.23;41.63;96982.50;10062183;29;20064;-84
2022/03/15 21:38:10;;;;;;;9.43;6.18;;;;;;;20.24;41.67;96987.59;10044000;29;20116;-84
2022/03/15 21:43:32;;;;;;;7.25;6.35;;;;;;;20.22;41.86;96989.84;10069309;29;20050;-84
2022/03/15 21:48:55;;;;;;;9.45;6.45;;;;;;;20.22;41.76;96980.94;10035861;29;20363;-84
2022/03/15 21:54:15;;;;;;;8.10;6.35;;;;;;;20.20;41.83;96981.25;10036175;29;20052;-84
2022/03/15 21:59:35;;;;;;;7.00;5.63;;;;;;;20.20;41.76;96988.59;10045565;29;20160;-84
2022/03/15 22:04:54;;;;;;;8.07;6.03;;;;;;;20.18;41.72;96983.50;10037563;29;20054;-84
2022/03/15 22:10:14;;;;;;;9.75;7.20;;;;;;;20.18;41.81;96980.78;10047522;29;20046;-84
2022/03/15 22:15:34;;;;;;;7.90;6.40;;;;;;;20.17;41.82;96964.88;10069781;29;20049;-84
2022/03/15 22:20:54;;;;;;;7.85;5.70;;;;;;;20.14;41.80;96964.41;10032821;29;20050;-84
2022/03/15 22:26:19;;;;;;;6.90;5.93;;;;;;;20.14;41.83;96969.03;10072474;29;20058;-84
2022/03/15 23:27:16;;;;;;;7.30;5.55;;;;;;;20.02;42.01;97017.59;10104761;29;20040;-84
2022/03/15 23:32:36;;;;;;;6.10;5.43;;;;;;;19.99;41.66;97021.72;10069970;29;20048;-84
2022/03/15 23:37:57;;;;;;;6.47;5.20;;;;;;;19.95;41.50;97018.88;10040014;29;20054;-84
2022/03/15 23:43:16;;;;;;;6.25;5.65;;;;;;;19.96;41.67;97025.06;10082391;29;20460;-84
2022/03/15 23:48:35;;;;;;;6.35;5.05;;;;;;;19.95;41.45;97031.59;10074245;29;20177;-84
2022/03/15 23:53:55;;;;;;;5.93;5.30;;;;;;;19.93;41.44;97039.22;10084252;29;20041;-84
2022/03/15 23:59:15;;;;;;;5.75;4.80;;;;;;;19.91;41.45;97028.72;10066401;29;20057;-84
